createdAt,value
2024-02-21T00:00:06.344Z,6.40
2024-02-21T00:02:32.881Z,8.53
2024-02-21T00:04:59.421Z,6.27
2024-02-21T00:07:26.122Z,7.87
2024-02-21T00:09:52.901Z,7.30
2024-02-21T00:12:19.608Z,9.03
2024-02-21T00:14:46.113Z,5.63
2024-02-21T00:17:12.634Z,8.20
2024-02-21T00:19:39.209Z,7.70
2024-02-21T00:22:05.764Z,6.07
2024-02-21T00:24:32.250Z,5.27
2024-02-21T00:26:58.796Z,5.10
2024-02-21T00:29:25.283Z,8.80
2024-02-21T00:31:52.130Z,10.07
2024-02-21T00:34:18.965Z,9.93
2024-02-21T00:36:45.737Z,8.17
2024-02-21T00:39:12.233Z,7.70
2024-02-21T00:41:38.835Z,9.20
2024-02-21T00:44:07.261Z,9.77
2024-02-21T00:46:33.941Z,7.10
2024-02-21T00:49:00.558Z,5.83
2024-02-21T00:51:27.170Z,8.13
2024-02-21T00:53:53.699Z,7.23
2024-02-21T00:56:20.247Z,6.30
2024-02-21T00:58:47.173Z,6.63
2024-02-21T01:01:14.651Z,6.23
2024-02-21T01:03:41.655Z,6.83
2024-02-21T01:06:08.241Z,9.33
2024-02-21T01:08:34.793Z,7.77
2024-02-21T01:11:01.517Z,8.10
2024-02-21T01:13:28.153Z,7.67
2024-02-21T01:15:55.279Z,7.97
2024-02-21T01:18:21.943Z,7.97
2024-02-21T01:20:48.601Z,6.00
2024-02-21T01:23:15.128Z,8.40
2024-02-21T01:25:41.765Z,7.40
2024-02-21T01:28:08.273Z,7.53
2024-02-21T01:30:35.889Z,8.60
2024-02-21T01:33:02.448Z,5.67
2024-02-21T01:35:29.102Z,5.97
2024-02-21T01:37:55.785Z,9.07
2024-02-21T01:40:22.452Z,7.20
2024-02-21T01:42:49.766Z,6.47
2024-02-21T01:45:18.805Z,8.00
2024-02-21T01:47:46.621Z,7.20
2024-02-21T01:50:16.380Z,6.67
2024-02-21T01:52:46.669Z,8.20
2024-02-21T01:55:15.101Z,6.20
2024-02-21T01:57:43.772Z,5.87
2024-02-21T02:00:13.289Z,9.00
2024-02-21T02:02:40.529Z,6.30
2024-02-21T02:05:08.888Z,9.80
2024-02-21T02:07:35.484Z,8.40
2024-02-21T02:10:03.031Z,6.37
2024-02-21T02:12:29.683Z,6.83
2024-02-21T02:15:07.179Z,8.17
2024-02-21T02:17:33.769Z,6.17
2024-02-21T02:20:00.446Z,5.87
2024-02-21T02:22:30.525Z,10.17
2024-02-21T02:24:57.163Z,9.70
2024-02-21T02:27:24.125Z,7.10
2024-02-21T02:29:50.642Z,10.50
2024-02-21T02:32:17.427Z,6.83
2024-02-21T02:34:43.946Z,7.03
2024-02-21T02:37:10.521Z,6.43
2024-02-21T02:39:37.035Z,8.57
2024-02-21T02:42:03.843Z,9.67
2024-02-21T02:44:30.367Z,8.43
2024-02-21T02:46:56.949Z,10.33
2024-02-21T02:49:23.597Z,7.37
2024-02-21T02:51:50.174Z,8.07
2024-02-21T02:54:16.677Z,7.23
2024-02-21T02:56:43.274Z,10.60
2024-02-21T02:59:09.805Z,7.50
2024-02-21T03:01:36.705Z,8.47
2024-02-21T03:04:04.128Z,10.07
2024-02-21T03:06:30.903Z,8.30
2024-02-21T03:08:57.606Z,8.13
2024-02-21T03:11:30.209Z,8.80
2024-02-21T03:13:57.967Z,6.50
2024-02-21T03:16:24.752Z,7.27
2024-02-21T03:18:51.444Z,8.17
2024-02-21T03:21:18.020Z,8.20
2024-02-21T03:23:44.539Z,7.67
2024-02-21T03:26:11.058Z,8.57
2024-02-21T03:28:37.639Z,7.00
2024-02-21T03:31:05.114Z,10.20
2024-02-21T03:33:31.741Z,6.40
2024-02-21T03:35:58.332Z,7.00
2024-02-21T03:38:24.883Z,9.27
2024-02-21T03:40:51.529Z,6.10
2024-02-21T03:43:18.053Z,7.80
2024-02-21T03:45:44.546Z,6.00
2024-02-21T03:48:11.108Z,7.00
2024-02-21T03:50:37.682Z,6.90
2024-02-21T03:53:04.485Z,7.10
2024-02-21T03:55:31.053Z,7.30
2024-02-21T03:57:57.607Z,8.30
2024-02-21T04:00:24.783Z,5.47
2024-02-21T04:02:51.336Z,8.17
2024-02-21T04:05:18.137Z,7.10
2024-02-21T04:07:44.794Z,7.27
2024-02-21T04:10:13.170Z,8.50
2024-02-21T04:12:39.805Z,5.90
2024-02-21T04:15:07.052Z,4.77
2024-02-21T04:17:33.684Z,8.80
2024-02-21T04:20:08.852Z,4.20
2024-02-21T04:22:35.630Z,7.90
2024-02-21T04:25:02.296Z,6.87
2024-02-21T04:27:29.043Z,6.37
2024-02-21T04:29:56.060Z,8.43
2024-02-21T04:32:22.724Z,6.27
2024-02-21T04:34:49.378Z,7.80
2024-02-21T04:37:16.000Z,8.57
2024-02-21T04:39:42.534Z,5.17
2024-02-21T04:42:09.119Z,4.93
2024-02-21T04:44:35.723Z,5.70
2024-02-21T04:47:02.359Z,6.43
2024-02-21T04:49:29.040Z,4.90
2024-02-21T04:51:55.671Z,5.90
2024-02-21T04:54:22.188Z,5.50
2024-02-21T04:56:50.651Z,4.70
2024-02-21T04:59:18.227Z,9.70
2024-02-21T05:01:44.885Z,9.13
2024-02-21T05:04:11.475Z,5.97
2024-02-21T05:06:39.854Z,5.40
2024-02-21T05:09:07.751Z,7.97
2024-02-21T05:11:34.390Z,6.27
2024-02-21T05:14:01.307Z,5.27
2024-02-21T05:16:27.889Z,7.17
2024-02-21T05:18:54.500Z,5.17
2024-02-21T05:21:21.037Z,5.60
2024-02-21T05:23:47.601Z,4.87
2024-02-21T05:26:21.574Z,5.27
2024-02-21T05:28:48.198Z,4.93
2024-02-21T05:31:15.500Z,10.07
2024-02-21T05:33:42.129Z,9.13
2024-02-21T05:36:08.719Z,6.63
2024-02-21T05:38:36.499Z,5.87
2024-02-21T05:41:03.344Z,5.80
2024-02-21T05:43:30.060Z,5.93
2024-02-21T05:45:56.713Z,7.83
2024-02-21T05:48:24.247Z,5.17
2024-02-21T05:50:51.405Z,6.07
2024-02-21T05:53:18.112Z,6.63
2024-02-21T05:55:45.621Z,6.23
2024-02-21T05:58:14.797Z,10.27
2024-02-21T06:00:41.420Z,5.73
2024-02-21T06:03:08.345Z,5.23
2024-02-21T06:05:39.670Z,6.13
2024-02-21T06:08:06.664Z,5.57
2024-02-21T06:10:33.226Z,4.60
2024-02-21T06:12:59.800Z,5.33
2024-02-21T06:15:26.338Z,8.13
2024-02-21T06:17:52.887Z,5.30
2024-02-21T06:20:19.569Z,7.23
2024-02-21T06:22:46.289Z,6.20
2024-02-21T06:25:12.849Z,4.00
2024-02-21T06:27:39.459Z,5.27
2024-02-21T06:30:06.643Z,6.60
2024-02-21T06:32:33.264Z,7.00
2024-02-21T06:34:59.888Z,5.37
2024-02-21T06:37:26.496Z,7.03
2024-02-21T06:39:53.099Z,6.63
2024-02-21T06:42:19.719Z,6.83
2024-02-21T06:44:46.240Z,6.77
2024-02-21T06:47:12.852Z,8.20
2024-02-21T06:49:39.505Z,6.13
2024-02-21T06:52:06.604Z,6.67
2024-02-21T06:54:33.202Z,6.33
2024-02-21T06:56:59.761Z,9.60
2024-02-21T06:59:26.245Z,8.80
2024-02-21T07:01:56.847Z,7.13
2024-02-21T07:04:23.817Z,6.97
2024-02-21T07:06:50.610Z,6.53
2024-02-21T07:09:17.219Z,6.87
2024-02-21T07:11:43.839Z,4.33
2024-02-21T07:14:10.507Z,6.43
2024-02-21T07:16:37.117Z,6.80
2024-02-21T07:19:04.176Z,4.77
2024-02-21T07:21:30.883Z,4.03
2024-02-21T07:23:57.402Z,7.87
2024-02-21T07:26:24.033Z,3.20
2024-02-21T07:28:51.113Z,6.67
2024-02-21T07:31:18.156Z,8.07
2024-02-21T07:33:45.023Z,6.87
2024-02-21T07:36:12.516Z,4.50
2024-02-21T07:38:39.123Z,4.20
2024-02-21T07:41:05.791Z,6.13
2024-02-21T07:43:32.376Z,2.80
2024-02-21T07:45:58.972Z,4.00
2024-02-21T07:48:28.235Z,3.43
2024-02-21T07:50:55.047Z,4.00
2024-02-21T07:53:21.950Z,5.37
2024-02-21T07:55:48.445Z,5.23
2024-02-21T07:58:15.091Z,5.60
2024-02-21T08:00:41.757Z,10.37
2024-02-21T08:03:08.306Z,4.30
2024-02-21T08:05:37.859Z,3.80
2024-02-21T08:08:05.565Z,4.30
2024-02-21T08:10:32.475Z,4.87
2024-02-21T08:12:59.040Z,6.43
2024-02-21T08:15:29.561Z,7.83
2024-02-21T08:18:02.649Z,9.03
2024-02-21T08:20:29.379Z,5.17
2024-02-21T08:22:56.145Z,4.03
2024-02-21T08:25:22.777Z,8.03
2024-02-21T08:27:49.365Z,4.33
2024-02-21T08:30:16.226Z,4.93
2024-02-21T08:32:43.263Z,3.77
2024-02-21T08:35:10.009Z,4.50
2024-02-21T08:37:36.834Z,5.13
2024-02-21T08:40:09.376Z,6.77
2024-02-21T08:42:41.911Z,8.30
2024-02-21T08:45:09.098Z,4.67
2024-02-21T08:47:36.506Z,4.03
2024-02-21T08:50:11.509Z,5.97
2024-02-21T08:52:45.654Z,4.77
2024-02-21T08:55:12.269Z,3.63
2024-02-21T08:57:39.137Z,6.90
2024-02-21T09:00:10.697Z,4.33
2024-02-21T09:02:44.658Z,5.20
2024-02-21T09:05:11.787Z,7.33
2024-02-21T09:07:38.452Z,9.43
2024-02-21T09:10:05.505Z,6.70
2024-02-21T09:12:32.053Z,3.07
2024-02-21T09:14:58.621Z,8.37
2024-02-21T09:17:26.358Z,5.77
2024-02-21T09:19:53.576Z,5.70
2024-02-21T09:22:20.350Z,7.63
2024-02-21T09:24:46.893Z,6.70
2024-02-21T09:27:13.533Z,14.10
2024-02-21T09:29:40.757Z,28.90
2024-02-21T09:32:07.799Z,52.33
2024-02-21T09:34:34.543Z,13.60
2024-02-21T09:37:01.243Z,13.40
2024-02-21T09:39:27.769Z,6.83
2024-02-21T09:42:10.300Z,15.60
2024-02-21T09:44:40.079Z,12.37
2024-02-21T09:47:16.632Z,10.77
2024-02-21T09:49:45.025Z,8.73
2024-02-21T09:52:15.326Z,8.07
2024-02-21T09:54:45.649Z,7.07
2024-02-21T09:57:13.027Z,8.17
2024-02-21T09:59:42.595Z,4.33
2024-02-21T10:02:09.289Z,8.83
2024-02-21T10:04:36.297Z,7.47
2024-02-21T10:07:02.940Z,4.73
2024-02-21T10:09:30.506Z,4.77
2024-02-21T10:12:09.211Z,5.60
2024-02-21T10:14:35.770Z,4.90
2024-02-21T10:17:03.231Z,4.73
2024-02-21T10:19:30.033Z,7.10
2024-02-21T10:22:09.218Z,6.67
2024-02-21T10:24:39.110Z,7.67
2024-02-21T10:27:09.865Z,8.20
2024-02-21T10:29:36.831Z,7.03
2024-02-21T10:32:07.104Z,5.07
2024-02-21T10:34:34.558Z,5.13
2024-02-21T10:37:05.504Z,8.70
2024-02-21T10:39:50.156Z,5.43
2024-02-21T10:42:22.286Z,5.03
2024-02-21T10:44:55.273Z,7.30
2024-02-21T10:47:24.819Z,3.60
2024-02-21T10:50:03.456Z,6.40
2024-02-21T10:52:47.276Z,6.90
2024-02-21T10:55:34.804Z,5.63
2024-02-21T10:58:01.389Z,7.93
2024-02-21T11:00:31.348Z,2.97
2024-02-21T11:03:00.431Z,6.07
2024-02-21T11:05:29.379Z,2.43
2024-02-21T11:07:56.608Z,4.47
2024-02-21T11:10:27.657Z,4.63
2024-02-21T11:13:15.483Z,3.00
2024-02-21T11:15:42.146Z,4.80
2024-02-21T11:18:08.822Z,3.63
2024-02-21T11:20:37.194Z,6.60
2024-02-21T11:23:04.063Z,4.80
2024-02-21T11:25:35.406Z,7.50
2024-02-21T11:28:03.070Z,6.77
2024-02-21T11:30:36.149Z,3.97
2024-02-21T11:33:04.349Z,3.50
2024-02-21T11:35:35.375Z,3.13
2024-02-21T11:38:18.372Z,3.70
2024-02-21T11:40:47.344Z,5.03
2024-02-21T11:43:14.024Z,5.47
2024-02-21T11:45:40.529Z,3.20
2024-02-21T11:48:09.591Z,3.43
2024-02-21T11:50:40.897Z,7.43
2024-02-21T11:53:07.965Z,4.83
2024-02-21T11:55:35.822Z,5.87
2024-02-21T11:58:05.701Z,4.83
2024-02-21T12:00:32.326Z,3.57
2024-02-21T12:03:03.144Z,3.03
2024-02-21T12:05:30.328Z,4.30
2024-02-21T12:07:57.605Z,4.07
2024-02-21T12:10:24.136Z,5.37
2024-02-21T12:12:53.167Z,1.67
2024-02-21T12:15:20.295Z,3.10
2024-02-21T12:17:47.082Z,2.33
2024-02-21T12:20:14.162Z,3.80
2024-02-21T12:22:43.210Z,3.50
2024-02-21T12:25:20.397Z,4.53
2024-02-21T12:27:47.979Z,2.80
2024-02-21T12:30:14.729Z,1.70
2024-02-21T12:32:42.306Z,6.87
2024-02-21T12:35:09.219Z,4.10
2024-02-21T12:37:38.721Z,2.00
2024-02-21T12:40:07.936Z,2.40
2024-02-21T12:42:35.177Z,2.40
2024-02-21T12:45:04.385Z,2.50
2024-02-21T12:47:31.143Z,1.73
2024-02-21T12:49:57.746Z,2.87
2024-02-21T12:52:25.109Z,2.87
2024-02-21T12:54:52.919Z,3.23
2024-02-21T12:57:19.625Z,4.50
2024-02-21T12:59:46.132Z,2.77
2024-02-21T13:02:12.763Z,3.53
2024-02-21T13:04:42.001Z,3.27
2024-02-21T13:07:09.121Z,3.33
2024-02-21T13:09:36.147Z,2.40
2024-02-21T13:12:03.627Z,3.10
2024-02-21T13:14:30.321Z,3.77
2024-02-21T13:16:56.971Z,1.20
2024-02-21T13:19:23.717Z,3.10
2024-02-21T13:21:50.362Z,2.40
2024-02-21T13:24:16.905Z,1.80
2024-02-21T13:26:43.388Z,3.17
2024-02-21T13:29:10.174Z,1.13
2024-02-21T13:31:36.921Z,4.13
2024-02-21T13:34:04.457Z,4.47
2024-02-21T13:36:31.135Z,1.93
2024-02-21T13:38:57.643Z,1.03
2024-02-21T13:41:24.671Z,2.33
2024-02-21T13:43:51.424Z,1.67
2024-02-21T13:46:17.925Z,3.00
2024-02-21T13:48:44.550Z,5.47
2024-02-21T13:51:12.904Z,3.80
2024-02-21T13:53:39.532Z,3.80
2024-02-21T13:56:06.415Z,6.20
2024-02-21T13:58:33.054Z,3.17
2024-02-21T14:00:59.683Z,1.90
2024-02-21T14:03:27.023Z,3.63
2024-02-21T14:05:53.771Z,1.87
2024-02-21T14:08:20.433Z,1.63
2024-02-21T14:10:47.083Z,5.00
2024-02-21T14:13:13.716Z,2.57
2024-02-21T14:15:43.448Z,3.07
2024-02-21T14:18:10.900Z,4.03
2024-02-21T14:20:38.607Z,1.53
2024-02-21T14:23:05.887Z,2.13
2024-02-21T14:25:34.305Z,2.13
2024-02-21T14:28:03.952Z,2.20
2024-02-21T14:30:30.486Z,1.47
2024-02-21T14:32:57.631Z,1.67
2024-02-21T14:35:24.986Z,1.43
2024-02-21T14:37:51.687Z,2.20
2024-02-21T14:40:18.715Z,3.30
2024-02-21T14:42:45.315Z,1.40
2024-02-21T14:45:12.242Z,0.90
2024-02-21T14:47:38.876Z,2.10
2024-02-21T14:50:06.138Z,1.53
2024-02-21T14:52:34.221Z,2.00
2024-02-21T14:55:00.930Z,2.27
2024-02-21T14:57:27.465Z,4.60
2024-02-21T14:59:57.529Z,1.00
2024-02-21T15:02:24.373Z,1.57
2024-02-21T15:04:52.730Z,1.93
2024-02-21T15:07:21.024Z,1.93
2024-02-21T15:09:47.645Z,1.60
2024-02-21T15:12:14.197Z,3.20
2024-02-21T15:14:40.756Z,2.30
2024-02-21T15:17:07.543Z,1.90
2024-02-21T15:19:35.526Z,2.03
2024-02-21T15:22:03.887Z,1.23
2024-02-21T15:24:30.450Z,1.90
2024-02-21T15:26:57.117Z,0.93
2024-02-21T15:29:24.766Z,2.77
2024-02-21T15:31:51.326Z,1.63
2024-02-21T15:34:18.917Z,3.80
2024-02-21T15:36:46.057Z,7.83
2024-02-21T15:39:13.443Z,2.90
2024-02-21T15:41:40.057Z,1.70
2024-02-21T15:44:06.740Z,1.97
2024-02-21T15:46:35.318Z,3.37
2024-02-21T15:49:02.191Z,1.90
2024-02-21T15:51:28.896Z,2.77
2024-02-21T15:53:55.436Z,2.70
2024-02-21T15:56:22.023Z,2.17
2024-02-21T15:58:48.625Z,3.07
2024-02-21T16:01:15.475Z,1.33
2024-02-21T16:03:42.295Z,2.53
2024-02-21T16:06:10.231Z,3.63
2024-02-21T16:08:42.132Z,4.07
2024-02-21T16:11:18.660Z,3.03
2024-02-21T16:13:51.002Z,5.03
2024-02-21T16:16:17.935Z,3.13
2024-02-21T16:18:44.528Z,2.97
2024-02-21T16:21:11.893Z,2.70
2024-02-21T16:23:38.456Z,3.13
2024-02-21T16:26:05.097Z,5.10
2024-02-21T16:28:31.703Z,5.77
2024-02-21T16:30:59.928Z,10.07
2024-02-21T16:33:26.607Z,6.17
2024-02-21T16:35:53.586Z,12.00
2024-02-21T16:38:20.312Z,3.33
2024-02-21T16:40:46.947Z,2.47
2024-02-21T16:43:13.529Z,2.77
2024-02-21T16:45:40.039Z,1.70
2024-02-21T16:48:06.938Z,2.17
2024-02-21T16:50:36.826Z,3.20
2024-02-21T16:53:08.130Z,4.57
2024-02-21T16:55:35.318Z,2.27
2024-02-21T16:58:02.224Z,1.77
2024-02-21T17:00:29.172Z,2.30
2024-02-21T17:02:59.715Z,1.67
2024-02-21T17:05:27.397Z,2.30
2024-02-21T17:07:54.413Z,2.10
2024-02-21T17:10:21.188Z,3.20
2024-02-21T17:12:47.781Z,1.47
2024-02-21T17:15:16.825Z,3.07
2024-02-21T17:17:43.836Z,1.67
2024-02-21T17:20:10.983Z,2.77
2024-02-21T17:22:37.780Z,2.27
2024-02-21T17:25:10.920Z,2.13
2024-02-21T17:27:38.258Z,2.70
2024-02-21T17:30:07.009Z,2.80
2024-02-21T17:32:35.497Z,1.97
2024-02-21T17:35:06.147Z,1.50
2024-02-21T17:37:35.778Z,2.23
2024-02-21T17:40:06.007Z,3.97
2024-02-21T17:42:33.126Z,2.37
2024-02-21T17:44:59.722Z,1.57
2024-02-21T17:47:26.394Z,2.23
2024-02-21T17:49:53.063Z,1.77
2024-02-21T17:52:19.606Z,2.00
2024-02-21T17:54:47.733Z,1.80
2024-02-21T17:57:17.311Z,3.00
2024-02-21T17:59:45.728Z,3.73
2024-02-21T18:02:12.871Z,11.27
2024-02-21T18:04:40.930Z,13.00
2024-02-21T18:07:07.599Z,9.13
2024-02-21T18:09:35.457Z,9.10
2024-02-21T18:12:02.140Z,9.67
2024-02-21T18:14:28.672Z,9.00
2024-02-21T18:16:55.318Z,7.63
2024-02-21T18:19:21.990Z,5.37
2024-02-21T18:21:48.581Z,5.53
2024-02-21T18:24:15.199Z,6.83
2024-02-21T18:26:41.687Z,4.70
2024-02-21T18:29:10.262Z,6.13
2024-02-21T18:31:38.849Z,4.90
2024-02-21T18:34:05.796Z,5.87
2024-02-21T18:36:32.415Z,4.73
2024-02-21T18:38:59.011Z,3.67
2024-02-21T18:41:27.680Z,5.47
2024-02-21T18:43:55.368Z,3.03
2024-02-21T18:46:22.298Z,3.80
2024-02-21T18:48:48.860Z,3.00
2024-02-21T18:51:16.354Z,4.10
2024-02-21T18:53:43.221Z,4.10
2024-02-21T18:56:10.058Z,5.03
2024-02-21T18:58:36.731Z,2.73
2024-02-21T19:01:04.654Z,3.37
2024-02-21T19:03:31.450Z,2.37
2024-02-21T19:05:58.263Z,4.93
2024-02-21T19:08:24.919Z,4.37
2024-02-21T19:10:51.811Z,3.53
2024-02-21T19:13:21.288Z,3.57
2024-02-21T19:15:47.870Z,27.33
2024-02-21T19:18:14.741Z,20.23
2024-02-21T19:20:41.323Z,75.63
2024-02-21T19:23:09.091Z,40.63
2024-02-21T19:25:35.804Z,42.67
2024-02-21T19:28:02.726Z,50.03
2024-02-21T19:30:29.719Z,48.80
2024-02-21T19:32:56.357Z,52.87
2024-02-21T19:35:23.032Z,46.90
2024-02-21T19:37:50.233Z,51.83
2024-02-21T19:40:17.481Z,53.30
2024-02-21T19:42:44.695Z,47.97
2024-02-21T19:45:11.470Z,43.73
2024-02-21T19:47:38.049Z,41.17
2024-02-21T19:50:05.693Z,38.97
2024-02-21T19:52:32.468Z,34.93
2024-02-21T19:55:00.014Z,31.87
2024-02-21T19:57:26.654Z,30.10
2024-02-21T19:59:54.445Z,27.97
2024-02-21T20:02:21.032Z,25.90
2024-02-21T20:04:48.769Z,22.77
2024-02-21T20:07:15.329Z,20.97
2024-02-21T20:09:42.704Z,21.73
2024-02-21T20:12:09.588Z,17.47
2024-02-21T20:14:36.224Z,16.97
2024-02-21T20:17:02.843Z,16.63
2024-02-21T20:19:29.580Z,15.33
2024-02-21T20:21:56.140Z,15.37
2024-02-21T20:24:32.616Z,14.10
2024-02-21T20:27:06.788Z,16.67
2024-02-21T20:29:33.343Z,14.73
2024-02-21T20:32:00.706Z,16.10
2024-02-21T20:34:31.433Z,14.23
2024-02-21T20:36:58.568Z,14.67
2024-02-21T20:39:26.106Z,13.03
2024-02-21T20:41:52.702Z,13.17
2024-02-21T20:44:19.281Z,14.23
2024-02-21T20:46:45.913Z,14.87
2024-02-21T20:49:12.512Z,12.47
2024-02-21T20:51:39.157Z,13.23
2024-02-21T20:54:05.713Z,13.17
2024-02-21T20:56:32.254Z,13.93
2024-02-21T20:58:58.847Z,11.50
2024-02-21T21:01:25.610Z,10.80
2024-02-21T21:03:52.306Z,11.80
2024-02-21T21:06:19.937Z,12.00
2024-02-21T21:08:46.818Z,14.17
2024-02-21T21:11:13.530Z,12.10
2024-02-21T21:13:40.170Z,13.27
2024-02-21T21:16:07.417Z,16.00
2024-02-21T21:18:34.328Z,14.33
2024-02-21T21:21:01.777Z,12.33
2024-02-21T21:23:28.459Z,10.77
2024-02-21T21:25:56.181Z,13.67
2024-02-21T21:28:22.870Z,11.47
2024-02-21T21:30:50.788Z,11.10
2024-02-21T21:33:18.924Z,13.57
2024-02-21T21:35:45.644Z,14.53
2024-02-21T21:38:14.435Z,12.37
2024-02-21T21:40:44.207Z,14.00
2024-02-21T21:43:10.971Z,9.10
2024-02-21T21:45:37.733Z,10.80
2024-02-21T21:48:05.510Z,13.37
2024-02-21T21:50:32.555Z,14.43
2024-02-21T21:52:59.219Z,9.77
2024-02-21T21:55:25.894Z,9.07
2024-02-21T21:57:53.176Z,13.03
2024-02-21T22:00:20.971Z,12.50
2024-02-21T22:02:48.890Z,13.20
2024-02-21T22:05:16.254Z,16.40
2024-02-21T22:07:42.964Z,14.77
2024-02-21T22:10:09.566Z,14.10
2024-02-21T22:12:36.062Z,13.37
2024-02-21T22:15:05.286Z,19.80
2024-02-21T22:17:33.186Z,17.07
2024-02-21T22:19:59.917Z,13.27
2024-02-21T22:22:26.579Z,15.27
2024-02-21T22:24:53.875Z,21.10
2024-02-21T22:27:20.451Z,16.23
2024-02-21T22:29:46.982Z,14.17
2024-02-21T22:32:13.579Z,17.30
2024-02-21T22:34:40.269Z,14.90
2024-02-21T22:37:06.999Z,13.77
2024-02-21T22:39:33.577Z,11.40
2024-02-21T22:42:00.186Z,15.53
2024-02-21T22:44:26.991Z,13.53
2024-02-21T22:46:57.157Z,13.40
2024-02-21T22:49:24.330Z,10.87
2024-02-21T22:51:50.885Z,15.37
2024-02-21T22:54:17.415Z,8.63
2024-02-21T22:56:44.534Z,10.20
2024-02-21T22:59:12.813Z,8.33
2024-02-21T23:01:39.606Z,8.03
2024-02-21T23:04:06.366Z,7.83
2024-02-21T23:06:33.541Z,6.40
2024-02-21T23:09:00.120Z,6.00
2024-02-21T23:11:28.046Z,7.93
2024-02-21T23:13:54.725Z,8.40
2024-02-21T23:16:21.544Z,7.83
2024-02-21T23:18:48.110Z,6.60
2024-02-21T23:21:14.695Z,7.27
2024-02-21T23:23:41.209Z,8.33
2024-02-21T23:26:08.142Z,5.90
2024-02-21T23:28:34.746Z,6.50
2024-02-21T23:31:01.257Z,6.87
2024-02-21T23:33:34.951Z,6.80
2024-02-21T23:36:11.159Z,6.20
2024-02-21T23:38:37.666Z,7.57
2024-02-21T23:41:04.413Z,6.87
2024-02-21T23:43:43.483Z,7.23
2024-02-21T23:46:13.094Z,6.07
2024-02-21T23:48:40.669Z,5.47
2024-02-21T23:51:08.009Z,6.43
2024-02-21T23:53:34.701Z,4.63
2024-02-21T23:56:04.163Z,5.17
